sensor_id;sensor_type;location;lat;lon;timestamp;temperature;humidity
17948;DHT22;9099;47.958;11.366;2023-03-01T00:01:13;1.00;99.90
17948;DHT22;9099;47.958;11.366;2023-03-01T00:03:41;1.10;99.90
17948;DHT22;9099;47.958;11.366;2023-03-01T00:06:10;1.10;99.90
17948;DHT22;9099;47.958;11.366;2023-03-01T00:08:37;1.10;99.90
17948;DHT22;9099;47.958;11.366;2023-03-01T00:11:06;1.10;99.90
17948;DHT22;9099;47.958;11.366;2023-03-01T00:13:35;1.10;99.90
17948;DHT22;9099;47.958;11.366;2023-03-01T00:16:03;1.10;99.90
17948;DHT22;9099;47.958;11.366;2023-03-01T00:18:30;1.10;99.90
17948;DHT22;9099;47.958;11.366;2023-03-01T00:20:56;1.10;99.90
17948;DHT22;9099;47.958;11.366;2023-03-01T00:23:25;1.10;99.90
17948;DHT22;9099;47.958;11.366;2023-03-01T00:25:52;1.00;99.90
17948;DHT22;9099;47.958;11.366;2023-03-01T00:28:19;1.00;99.90
17948;DHT22;9099;47.958;11.366;2023-03-01T00:30:47;1.00;99.90
17948;DHT22;9099;47.958;11.366;2023-03-01T00:33:14;1.00;99.90
17948;DHT22;9099;47.958;11.366;2023-03-01T00:35:41;1.00;99.90
17948;DHT22;9099;47.958;11.366;2023-03-01T00:38:08;1.00;99.90
17948;DHT22;9099;47.958;11.366;2023-03-01T00:40:36;1.00;99.90
17948;DHT22;9099;47.958;11.366;2023-03-01T00:43:03;1.00;99.90
17948;DHT22;9099;47.958;11.366;2023-03-01T00:45:32;1.00;99.90
17948;DHT22;9099;47.958;11.366;2023-03-01T00:47:59;0.90;99.90
17948;DHT22;9099;47.958;11.366;2023-03-01T00:50:26;0.90;99.90
17948;DHT22;9099;47.958;11.366;2023-03-01T00:52:53;0.90;99.90
17948;DHT22;9099;47.958;11.366;2023-03-01T00:55:20;0.90;99.90
17948;DHT22;9099;47.958;11.366;2023-03-01T00:57:48;0.90;99.90
17948;DHT22;9099;47.958;11.366;2023-03-01T01:00:16;0.90;99.90
17948;DHT22;9099;47.958;11.366;2023-03-01T01:02:43;0.90;99.90
17948;DHT22;9099;47.958;11.366;2023-03-01T01:05:10;0.90;99.90
17948;DHT22;9099;47.958;11.366;2023-03-01T01:07:37;0.90;99.90
17948;DHT22;9099;47.958;11.366;2023-03-01T01:10:04;0.90;99.90
17948;DHT22;9099;47.958;11.366;2023-03-01T01:12:32;0.90;99.90
17948;DHT22;9099;47.958;11.366;2023-03-01T01:15:00;0.90;99.90
17948;DHT22;9099;47.958;11.366;2023-03-01T01:17:27;0.90;99.90
17948;DHT22;9099;47.958;11.366;2023-03-01T01:19:53;0.90;99.90
17948;DHT22;9099;47.958;11.366;2023-03-01T01:22:20;0.90;99.90
17948;DHT22;9099;47.958;11.366;2023-03-01T01:24:47;0.90;99.90
17948;DHT22;9099;47.958;11.366;2023-03-01T01:27:14;0.80;99.90
17948;DHT22;9099;47.958;11.366;2023-03-01T01:29:40;0.80;99.90
17948;DHT22;9099;47.958;11.366;2023-03-01T01:32:09;0.80;99.90
17948;DHT22;9099;47.958;11.366;2023-03-01T01:34:36;0.70;99.90
17948;DHT22;9099;47.958;11.366;2023-03-01T01:37:03;0.80;99.90
17948;DHT22;9099;47.958;11.366;2023-03-01T01:39:33;0.70;99.90
17948;DHT22;9099;47.958;11.366;2023-03-01T01:42:00;0.70;99.90
17948;DHT22;9099;47.958;11.366;2023-03-01T01:44:27;0.70;99.90
17948;DHT22;9099;47.958;11.366;2023-03-01T01:46:57;0.80;99.90
17948;DHT22;9099;47.958;11.366;2023-03-01T01:49:33;0.80;99.90
17948;DHT22;9099;47.958;11.366;2023-03-01T01:52:09;0.80;99.90
17948;DHT22;9099;47.958;11.366;2023-03-01T01:54:43;0.70;99.90
17948;DHT22;9099;47.958;11.366;2023-03-01T01:57:14;0.70;99.90
17948;DHT22;9099;47.958;11.366;2023-03-01T01:59:43;0.70;99.90
17948;DHT22;9099;47.958;11.366;2023-03-01T02:02:12;0.70;99.90
17948;DHT22;9099;47.958;11.366;2023-03-01T02:04:40;0.80;99.90
17948;DHT22;9099;47.958;11.366;2023-03-01T02:07:14;0.70;99.90
17948;DHT22;9099;47.958;11.366;2023-03-01T02:09:45;0.70;99.90
17948;DHT22;9099;47.958;11.366;2023-03-01T02:12:13;0.70;99.90
17948;DHT22;9099;47.958;11.366;2023-03-01T02:14:40;0.70;99.90
17948;DHT22;9099;47.958;11.366;2023-03-01T02:17:07;0.70;99.90
17948;DHT22;9099;47.958;11.366;2023-03-01T02:19:47;0.70;99.90
17948;DHT22;9099;47.958;11.366;2023-03-01T02:22:20;0.70;99.90
17948;DHT22;9099;47.958;11.366;2023-03-01T02:24:57;0.70;99.90
17948;DHT22;9099;47.958;11.366;2023-03-01T02:27:33;0.70;99.90
17948;DHT22;9099;47.958;11.366;2023-03-01T02:30:05;0.70;99.90
17948;DHT22;9099;47.958;11.366;2023-03-01T02:32:33;0.70;99.90
17948;DHT22;9099;47.958;11.366;2023-03-01T02:35:00;0.70;99.90
17948;DHT22;9099;47.958;11.366;2023-03-01T02:37:27;0.70;99.90
17948;DHT22;9099;47.958;11.366;2023-03-01T02:39:58;0.70;99.90
17948;DHT22;9099;47.958;11.366;2023-03-01T02:42:30;0.70;99.90
17948;DHT22;9099;47.958;11.366;2023-03-01T02:44:58;0.70;99.90
17948;DHT22;9099;47.958;11.366;2023-03-01T02:47:26;0.80;99.90
17948;DHT22;9099;47.958;11.366;2023-03-01T02:49:53;0.80;99.90
17948;DHT22;9099;47.958;11.366;2023-03-01T02:52:30;0.80;99.90
17948;DHT22;9099;47.958;11.366;2023-03-01T02:55:02;0.70;99.90
17948;DHT22;9099;47.958;11.366;2023-03-01T02:57:31;0.70;99.90
17948;DHT22;9099;47.958;11.366;2023-03-01T03:00:02;0.70;99.90
17948;DHT22;9099;47.958;11.366;2023-03-01T03:02:35;0.70;99.90
17948;DHT22;9099;47.958;11.366;2023-03-01T03:05:07;0.70;99.90
17948;DHT22;9099;47.958;11.366;2023-03-01T03:07:35;0.70;99.90
17948;DHT22;9099;47.958;11.366;2023-03-01T03:10:05;0.70;99.90
17948;DHT22;9099;47.958;11.366;2023-03-01T03:12:32;0.70;99.90
17948;DHT22;9099;47.958;11.366;2023-03-01T03:14:59;0.70;99.90
17948;DHT22;9099;47.958;11.366;2023-03-01T03:17:26;0.70;99.90
17948;DHT22;9099;47.958;11.366;2023-03-01T03:19:54;0.70;99.90
17948;DHT22;9099;47.958;11.366;2023-03-01T03:22:21;0.70;99.90
17948;DHT22;9099;47.958;11.366;2023-03-01T03:24:47;0.60;99.90
17948;DHT22;9099;47.958;11.366;2023-03-01T03:27:14;0.60;99.90
17948;DHT22;9099;47.958;11.366;2023-03-01T03:29:41;0.60;99.90
17948;DHT22;9099;47.958;11.366;2023-03-01T03:32:08;0.60;99.90
17948;DHT22;9099;47.958;11.366;2023-03-01T03:34:34;0.60;99.90
17948;DHT22;9099;47.958;11.366;2023-03-01T03:37:03;0.60;99.90
17948;DHT22;9099;47.958;11.366;2023-03-01T03:39:49;0.60;99.90
17948;DHT22;9099;47.958;11.366;2023-03-01T03:42:20;0.60;99.90
17948;DHT22;9099;47.958;11.366;2023-03-01T03:44:47;0.60;99.90
17948;DHT22;9099;47.958;11.366;2023-03-01T03:47:14;0.60;99.90
17948;DHT22;9099;47.958;11.366;2023-03-01T03:49:41;0.60;99.90
17948;DHT22;9099;47.958;11.366;2023-03-01T03:52:09;0.60;99.90
17948;DHT22;9099;47.958;11.366;2023-03-01T03:54:39;0.60;99.90
17948;DHT22;9099;47.958;11.366;2023-03-01T03:57:06;0.60;99.90
17948;DHT22;9099;47.958;11.366;2023-03-01T03:59:33;0.60;99.90
17948;DHT22;9099;47.958;11.366;2023-03-01T04:02:00;0.60;99.90
17948;DHT22;9099;47.958;11.366;2023-03-01T04:04:27;0.60;99.90
17948;DHT22;9099;47.958;11.366;2023-03-01T04:06:53;0.60;99.90
17948;DHT22;9099;47.958;11.366;2023-03-01T04:09:22;0.60;99.90
17948;DHT22;9099;47.958;11.366;2023-03-01T04:11:48;0.60;99.90
17948;DHT22;9099;47.958;11.366;2023-03-01T04:14:15;0.60;99.90
17948;DHT22;9099;47.958;11.366;2023-03-01T04:16:42;0.50;99.90
17948;DHT22;9099;47.958;11.366;2023-03-01T04:19:09;0.50;99.90
17948;DHT22;9099;47.958;11.366;2023-03-01T04:21:36;0.50;99.90
17948;DHT22;9099;47.958;11.366;2023-03-01T04:24:03;0.50;99.90
17948;DHT22;9099;47.958;11.366;2023-03-01T04:26:31;0.60;99.90
17948;DHT22;9099;47.958;11.366;2023-03-01T04:28:58;0.50;99.90
17948;DHT22;9099;47.958;11.366;2023-03-01T04:31:25;0.50;99.90
17948;DHT22;9099;47.958;11.366;2023-03-01T04:33:53;0.50;99.90
17948;DHT22;9099;47.958;11.366;2023-03-01T04:36:22;0.50;99.90
17948;DHT22;9099;47.958;11.366;2023-03-01T04:38:49;0.40;99.90
17948;DHT22;9099;47.958;11.366;2023-03-01T04:41:18;0.40;99.90
17948;DHT22;9099;47.958;11.366;2023-03-01T04:43:46;0.40;99.90
17948;DHT22;9099;47.958;11.366;2023-03-01T04:46:16;0.50;99.90
17948;DHT22;9099;47.958;11.366;2023-03-01T04:48:44;0.50;99.90
17948;DHT22;9099;47.958;11.366;2023-03-01T04:51:11;0.50;99.90
17948;DHT22;9099;47.958;11.366;2023-03-01T04:53:40;0.50;99.90
17948;DHT22;9099;47.958;11.366;2023-03-01T04:56:07;0.50;99.90
17948;DHT22;9099;47.958;11.366;2023-03-01T04:58:34;0.50;99.90
17948;DHT22;9099;47.958;11.366;2023-03-01T05:01:08;0.50;99.90
17948;DHT22;9099;47.958;11.366;2023-03-01T05:03:41;0.40;99.90
17948;DHT22;9099;47.958;11.366;2023-03-01T05:06:09;0.40;99.90
17948;DHT22;9099;47.958;11.366;2023-03-01T05:08:36;0.30;99.90
17948;DHT22;9099;47.958;11.366;2023-03-01T05:11:03;0.30;99.90
17948;DHT22;9099;47.958;11.366;2023-03-01T05:13:31;0.40;99.90
17948;DHT22;9099;47.958;11.366;2023-03-01T05:15:59;0.40;99.90
17948;DHT22;9099;47.958;11.366;2023-03-01T05:18:29;0.30;99.90
17948;DHT22;9099;47.958;11.366;2023-03-01T05:21:02;0.30;99.90
17948;DHT22;9099;47.958;11.366;2023-03-01T05:23:29;0.30;99.90
17948;DHT22;9099;47.958;11.366;2023-03-01T05:25:57;0.40;99.90
17948;DHT22;9099;47.958;11.366;2023-03-01T05:28:25;0.40;99.90
17948;DHT22;9099;47.958;11.366;2023-03-01T05:30:53;0.40;99.90
17948;DHT22;9099;47.958;11.366;2023-03-01T05:33:20;0.30;99.90
17948;DHT22;9099;47.958;11.366;2023-03-01T05:35:50;0.30;99.90
17948;DHT22;9099;47.958;11.366;2023-03-01T05:38:17;0.30;99.90
17948;DHT22;9099;47.958;11.366;2023-03-01T05:40:46;0.20;99.90
17948;DHT22;9099;47.958;11.366;2023-03-01T05:43:15;0.20;99.90
17948;DHT22;9099;47.958;11.366;2023-03-01T05:45:44;0.20;99.90
17948;DHT22;9099;47.958;11.366;2023-03-01T05:48:11;0.20;99.90
17948;DHT22;9099;47.958;11.366;2023-03-01T05:50:39;0.30;99.90
17948;DHT22;9099;47.958;11.366;2023-03-01T05:53:10;0.30;99.90
17948;DHT22;9099;47.958;11.366;2023-03-01T05:55:38;0.30;99.90
17948;DHT22;9099;47.958;11.366;2023-03-01T05:58:07;0.20;99.90
17948;DHT22;9099;47.958;11.366;2023-03-01T06:00:34;0.10;99.90
17948;DHT22;9099;47.958;11.366;2023-03-01T06:03:01;0.00;99.90
17948;DHT22;9099;47.958;11.366;2023-03-01T06:05:29;0.00;99.90
17948;DHT22;9099;47.958;11.366;2023-03-01T06:07:58;0.00;99.90
17948;DHT22;9099;47.958;11.366;2023-03-01T06:10:27;-0.10;99.90
17948;DHT22;9099;47.958;11.366;2023-03-01T06:12:54;-0.10;99.90
17948;DHT22;9099;47.958;11.366;2023-03-01T06:15:21;-0.10;99.90
17948;DHT22;9099;47.958;11.366;2023-03-01T06:17:48;0.00;99.90
17948;DHT22;9099;47.958;11.366;2023-03-01T06:20:17;-0.10;99.90
17948;DHT22;9099;47.958;11.366;2023-03-01T06:22:45;-0.10;99.90
17948;DHT22;9099;47.958;11.366;2023-03-01T06:25:13;-0.10;99.90
17948;DHT22;9099;47.958;11.366;2023-03-01T06:27:41;-0.10;99.90
17948;DHT22;9099;47.958;11.366;2023-03-01T06:30:10;-0.10;99.90
17948;DHT22;9099;47.958;11.366;2023-03-01T06:32:38;-0.20;99.90
17948;DHT22;9099;47.958;11.366;2023-03-01T06:35:08;-0.10;99.90
17948;DHT22;9099;47.958;11.366;2023-03-01T06:37:35;-0.10;99.90
17948;DHT22;9099;47.958;11.366;2023-03-01T06:40:02;-0.10;99.90
17948;DHT22;9099;47.958;11.366;2023-03-01T06:42:33;0.00;99.90
17948;DHT22;9099;47.958;11.366;2023-03-01T06:45:02;0.00;99.90
17948;DHT22;9099;47.958;11.366;2023-03-01T06:47:29;0.00;99.90
17948;DHT22;9099;47.958;11.366;2023-03-01T06:49:55;0.00;99.90
17948;DHT22;9099;47.958;11.366;2023-03-01T06:52:22;0.10;99.90
17948;DHT22;9099;47.958;11.366;2023-03-01T06:54:49;0.00;99.90
17948;DHT22;9099;47.958;11.366;2023-03-01T06:57:16;0.00;99.90
17948;DHT22;9099;47.958;11.366;2023-03-01T06:59:43;0.00;99.90
17948;DHT22;9099;47.958;11.366;2023-03-01T07:02:11;0.00;99.90
17948;DHT22;9099;47.958;11.366;2023-03-01T07:04:39;0.00;99.90
17948;DHT22;9099;47.958;11.366;2023-03-01T07:07:06;0.00;99.90
17948;DHT22;9099;47.958;11.366;2023-03-01T07:09:33;-0.10;99.90
17948;DHT22;9099;47.958;11.366;2023-03-01T07:12:00;-0.10;99.90
17948;DHT22;9099;47.958;11.366;2023-03-01T07:14:27;-0.10;99.90
17948;DHT22;9099;47.958;11.366;2023-03-01T07:16:54;0.00;99.90
17948;DHT22;9099;47.958;11.366;2023-03-01T07:19:23;-0.10;99.90
17948;DHT22;9099;47.958;11.366;2023-03-01T07:21:49;-0.10;99.90
17948;DHT22;9099;47.958;11.366;2023-03-01T07:24:16;-0.10;99.90
17948;DHT22;9099;47.958;11.366;2023-03-01T07:26:43;-0.20;99.90
17948;DHT22;9099;47.958;11.366;2023-03-01T07:29:10;-0.20;99.90
17948;DHT22;9099;47.958;11.366;2023-03-01T07:31:37;-0.20;99.90
17948;DHT22;9099;47.958;11.366;2023-03-01T07:34:04;-0.10;99.90
17948;DHT22;9099;47.958;11.366;2023-03-01T07:36:33;-0.10;99.90
17948;DHT22;9099;47.958;11.366;2023-03-01T07:38:59;-0.10;99.90
17948;DHT22;9099;47.958;11.366;2023-03-01T07:41:28;0.00;99.90
17948;DHT22;9099;47.958;11.366;2023-03-01T07:43:55;0.00;99.90
17948;DHT22;9099;47.958;11.366;2023-03-01T07:46:22;0.00;99.90
17948;DHT22;9099;47.958;11.366;2023-03-01T07:48:49;0.00;99.90
17948;DHT22;9099;47.958;11.366;2023-03-01T07:51:16;-0.10;99.90
17948;DHT22;9099;47.958;11.366;2023-03-01T07:53:45;-0.10;99.90
17948;DHT22;9099;47.958;11.366;2023-03-01T07:56:13;-0.10;99.90
17948;DHT22;9099;47.958;11.366;2023-03-01T07:58:43;-0.10;99.90
17948;DHT22;9099;47.958;11.366;2023-03-01T08:01:12;-0.20;99.90
17948;DHT22;9099;47.958;11.366;2023-03-01T08:03:39;-0.10;99.90
17948;DHT22;9099;47.958;11.366;2023-03-01T08:06:08;-0.20;99.90
17948;DHT22;9099;47.958;11.366;2023-03-01T08:08:35;-0.20;99.90
17948;DHT22;9099;47.958;11.366;2023-03-01T08:11:05;-0.10;99.90
17948;DHT22;9099;47.958;11.366;2023-03-01T08:13:32;-0.10;99.90
17948;DHT22;9099;47.958;11.366;2023-03-01T08:16:03;0.00;99.90
17948;DHT22;9099;47.958;11.366;2023-03-01T08:18:30;0.10;99.90
17948;DHT22;9099;47.958;11.366;2023-03-01T08:21:01;0.10;99.90
17948;DHT22;9099;47.958;11.366;2023-03-01T08:23:28;0.20;99.90
17948;DHT22;9099;47.958;11.366;2023-03-01T08:26:03;0.20;99.90
17948;DHT22;9099;47.958;11.366;2023-03-01T08:28:30;0.30;99.90
17948;DHT22;9099;47.958;11.366;2023-03-01T08:30:57;0.30;99.90
17948;DHT22;9099;47.958;11.366;2023-03-01T08:33:24;0.40;99.90
17948;DHT22;9099;47.958;11.366;2023-03-01T08:35:50;0.40;99.90
17948;DHT22;9099;47.958;11.366;2023-03-01T08:38:17;0.50;99.90
17948;DHT22;9099;47.958;11.366;2023-03-01T08:40:44;0.50;99.90
17948;DHT22;9099;47.958;11.366;2023-03-01T08:43:12;0.50;99.90
17948;DHT22;9099;47.958;11.366;2023-03-01T08:45:39;0.70;99.90
17948;DHT22;9099;47.958;11.366;2023-03-01T08:48:06;0.70;99.90
17948;DHT22;9099;47.958;11.366;2023-03-01T08:50:33;0.80;99.90
17948;DHT22;9099;47.958;11.366;2023-03-01T08:52:59;0.80;99.90
17948;DHT22;9099;47.958;11.366;2023-03-01T08:55:26;0.80;99.90
17948;DHT22;9099;47.958;11.366;2023-03-01T08:57:53;1.00;99.90
17948;DHT22;9099;47.958;11.366;2023-03-01T09:00:22;1.00;99.90
17948;DHT22;9099;47.958;11.366;2023-03-01T09:02:49;1.20;99.90
17948;DHT22;9099;47.958;11.366;2023-03-01T09:05:16;1.20;99.90
17948;DHT22;9099;47.958;11.366;2023-03-01T09:07:42;1.30;99.90
17948;DHT22;9099;47.958;11.366;2023-03-01T09:10:10;1.20;99.90
17948;DHT22;9099;47.958;11.366;2023-03-01T09:12:37;1.20;99.90
17948;DHT22;9099;47.958;11.366;2023-03-01T09:15:05;1.30;99.90
17948;DHT22;9099;47.958;11.366;2023-03-01T09:17:33;1.30;99.90
17948;DHT22;9099;47.958;11.366;2023-03-01T09:20:00;1.30;99.90
17948;DHT22;9099;47.958;11.366;2023-03-01T09:22:27;1.20;99.90
17948;DHT22;9099;47.958;11.366;2023-03-01T09:24:53;1.20;99.90
17948;DHT22;9099;47.958;11.366;2023-03-01T09:27:22;1.20;99.90
17948;DHT22;9099;47.958;11.366;2023-03-01T09:29:50;1.20;99.90
17948;DHT22;9099;47.958;11.366;2023-03-01T09:32:16;1.40;99.90
17948;DHT22;9099;47.958;11.366;2023-03-01T09:34:45;1.40;99.90
17948;DHT22;9099;47.958;11.366;2023-03-01T09:37:28;1.30;99.90
17948;DHT22;9099;47.958;11.366;2023-03-01T09:42:23;1.40;99.90
17948;DHT22;9099;47.958;11.366;2023-03-01T09:44:52;1.50;99.90
17948;DHT22;9099;47.958;11.366;2023-03-01T09:47:24;1.60;99.90
17948;DHT22;9099;47.958;11.366;2023-03-01T09:50:00;1.70;99.90
17948;DHT22;9099;47.958;11.366;2023-03-01T09:52:34;1.70;99.90
17948;DHT22;9099;47.958;11.366;2023-03-01T09:55:09;1.70;99.90
17948;DHT22;9099;47.958;11.366;2023-03-01T09:57:40;1.90;99.90
17948;DHT22;9099;47.958;11.366;2023-03-01T10:00:16;1.90;99.90
17948;DHT22;9099;47.958;11.366;2023-03-01T10:02:48;2.00;99.90
17948;DHT22;9099;47.958;11.366;2023-03-01T10:05:29;2.10;99.90
17948;DHT22;9099;47.958;11.366;2023-03-01T10:08:06;2.10;99.90
17948;DHT22;9099;47.958;11.366;2023-03-01T10:10:44;2.00;99.90
17948;DHT22;9099;47.958;11.366;2023-03-01T10:13:17;1.90;99.90
17948;DHT22;9099;47.958;11.366;2023-03-01T10:15:50;2.00;99.90
17948;DHT22;9099;47.958;11.366;2023-03-01T10:18:22;2.00;99.90
17948;DHT22;9099;47.958;11.366;2023-03-01T10:20:54;1.80;99.90
17948;DHT22;9099;47.958;11.366;2023-03-01T10:23:23;1.70;99.90
17948;DHT22;9099;47.958;11.366;2023-03-01T10:26:05;1.60;99.90
17948;DHT22;9099;47.958;11.366;2023-03-01T10:28:44;1.60;99.90
17948;DHT22;9099;47.958;11.366;2023-03-01T10:31:17;1.60;99.90
17948;DHT22;9099;47.958;11.366;2023-03-01T10:33:45;1.60;99.90
17948;DHT22;9099;47.958;11.366;2023-03-01T10:36:14;1.60;99.90
17948;DHT22;9099;47.958;11.366;2023-03-01T10:38:49;1.70;99.90
17948;DHT22;9099;47.958;11.366;2023-03-01T10:41:18;1.80;99.90
17948;DHT22;9099;47.958;11.366;2023-03-01T10:43:47;1.70;99.90
17948;DHT22;9099;47.958;11.366;2023-03-01T10:46:23;1.70;99.90
17948;DHT22;9099;47.958;11.366;2023-03-01T10:49:13;1.70;99.90
17948;DHT22;9099;47.958;11.366;2023-03-01T10:51:43;1.80;99.90
17948;DHT22;9099;47.958;11.366;2023-03-01T10:54:17;1.90;99.90
17948;DHT22;9099;47.958;11.366;2023-03-01T10:56:49;1.90;99.90
17948;DHT22;9099;47.958;11.366;2023-03-01T10:59:28;1.90;99.90
17948;DHT22;9099;47.958;11.366;2023-03-01T11:02:15;1.90;99.90
17948;DHT22;9099;47.958;11.366;2023-03-01T11:04:57;1.90;99.90
17948;DHT22;9099;47.958;11.366;2023-03-01T11:07:26;1.90;99.90
17948;DHT22;9099;47.958;11.366;2023-03-01T11:09:52;2.20;99.90
17948;DHT22;9099;47.958;11.366;2023-03-01T11:12:20;2.10;99.90
17948;DHT22;9099;47.958;11.366;2023-03-01T11:14:49;2.10;99.90
17948;DHT22;9099;47.958;11.366;2023-03-01T11:17:21;2.10;99.90
17948;DHT22;9099;47.958;11.366;2023-03-01T11:20:01;2.10;99.90
17948;DHT22;9099;47.958;11.366;2023-03-01T11:22:31;2.20;99.90
17948;DHT22;9099;47.958;11.366;2023-03-01T11:25:00;2.20;99.90
17948;DHT22;9099;47.958;11.366;2023-03-01T11:27:31;2.10;99.90
17948;DHT22;9099;47.958;11.366;2023-03-01T11:30:02;2.10;99.90
17948;DHT22;9099;47.958;11.366;2023-03-01T11:32:34;2.20;99.90
17948;DHT22;9099;47.958;11.366;2023-03-01T11:35:05;2.10;99.90
17948;DHT22;9099;47.958;11.366;2023-03-01T11:37:41;2.10;99.90
17948;DHT22;9099;47.958;11.366;2023-03-01T11:40:13;2.20;99.90
17948;DHT22;9099;47.958;11.366;2023-03-01T11:42:48;2.30;99.90
17948;DHT22;9099;47.958;11.366;2023-03-01T11:45:16;2.40;99.90
17948;DHT22;9099;47.958;11.366;2023-03-01T11:47:58;2.60;99.90
17948;DHT22;9099;47.958;11.366;2023-03-01T11:50:32;2.80;99.90
17948;DHT22;9099;47.958;11.366;2023-03-01T11:53:24;2.70;99.90
17948;DHT22;9099;47.958;11.366;2023-03-01T11:56:02;2.80;99.90
17948;DHT22;9099;47.958;11.366;2023-03-01T11:58:41;2.60;99.90
17948;DHT22;9099;47.958;11.366;2023-03-01T12:01:32;2.60;99.90
17948;DHT22;9099;47.958;11.366;2023-03-01T12:04:18;2.60;99.90
17948;DHT22;9099;47.958;11.366;2023-03-01T12:06:54;2.70;99.90
17948;DHT22;9099;47.958;11.366;2023-03-01T12:09:38;2.70;99.90
17948;DHT22;9099;47.958;11.366;2023-03-01T12:12:29;2.70;99.90
17948;DHT22;9099;47.958;11.366;2023-03-01T12:21:10;2.60;99.90
17948;DHT22;9099;47.958;11.366;2023-03-01T12:24:10;2.50;99.90
17948;DHT22;9099;47.958;11.366;2023-03-01T12:26:50;2.50;99.90
17948;DHT22;9099;47.958;11.366;2023-03-01T12:29:25;2.50;99.90
17948;DHT22;9099;47.958;11.366;2023-03-01T12:32:12;2.50;99.90
17948;DHT22;9099;47.958;11.366;2023-03-01T12:35:05;2.40;99.90
17948;DHT22;9099;47.958;11.366;2023-03-01T12:37:42;2.50;99.90
17948;DHT22;9099;47.958;11.366;2023-03-01T12:40:33;2.70;99.90
17948;DHT22;9099;47.958;11.366;2023-03-01T12:43:10;2.80;99.90
17948;DHT22;9099;47.958;11.366;2023-03-01T12:45:58;2.70;99.90
17948;DHT22;9099;47.958;11.366;2023-03-01T12:48:38;2.80;99.90
17948;DHT22;9099;47.958;11.366;2023-03-01T12:51:10;2.90;99.90
17948;DHT22;9099;47.958;11.366;2023-03-01T12:53:40;3.10;99.90
17948;DHT22;9099;47.958;11.366;2023-03-01T12:56:09;3.20;99.90
17948;DHT22;9099;47.958;11.366;2023-03-01T12:58:41;3.10;99.90
17948;DHT22;9099;47.958;11.366;2023-03-01T13:01:18;2.90;99.90
17948;DHT22;9099;47.958;11.366;2023-03-01T13:04:04;2.90;99.90
17948;DHT22;9099;47.958;11.366;2023-03-01T13:06:41;3.10;99.90
17948;DHT22;9099;47.958;11.366;2023-03-01T13:09:18;3.40;99.90
17948;DHT22;9099;47.958;11.366;2023-03-01T13:11:46;3.40;99.90
17948;DHT22;9099;47.958;11.366;2023-03-01T13:14:37;3.50;99.90
17948;DHT22;9099;47.958;11.366;2023-03-01T13:17:30;3.70;99.90
17948;DHT22;9099;47.958;11.366;2023-03-01T13:19:58;4.20;99.90
17948;DHT22;9099;47.958;11.366;2023-03-01T13:22:28;4.20;99.90
17948;DHT22;9099;47.958;11.366;2023-03-01T13:25:13;4.50;99.90
17948;DHT22;9099;47.958;11.366;2023-03-01T13:27:40;4.90;99.90
17948;DHT22;9099;47.958;11.366;2023-03-01T13:30:39;5.30;99.90
17948;DHT22;9099;47.958;11.366;2023-03-01T13:33:40;5.10;99.90
17948;DHT22;9099;47.958;11.366;2023-03-01T13:36:08;5.20;99.90
17948;DHT22;9099;47.958;11.366;2023-03-01T13:38:38;5.10;99.90
17948;DHT22;9099;47.958;11.366;2023-03-01T13:41:07;5.40;99.90
17948;DHT22;9099;47.958;11.366;2023-03-01T13:43:35;5.40;99.90
17948;DHT22;9099;47.958;11.366;2023-03-01T13:46:09;5.20;99.90
17948;DHT22;9099;47.958;11.366;2023-03-01T13:48:37;5.40;99.90
17948;DHT22;9099;47.958;11.366;2023-03-01T13:51:08;5.60;99.90
17948;DHT22;9099;47.958;11.366;2023-03-01T13:53:37;5.50;99.90
17948;DHT22;9099;47.958;11.366;2023-03-01T13:56:08;5.70;99.90
17948;DHT22;9099;47.958;11.366;2023-03-01T13:58:46;5.70;99.90
17948;DHT22;9099;47.958;11.366;2023-03-01T14:01:22;5.80;99.90
17948;DHT22;9099;47.958;11.366;2023-03-01T14:03:50;5.60;99.90
17948;DHT22;9099;47.958;11.366;2023-03-01T14:06:20;5.70;99.90
17948;DHT22;9099;47.958;11.366;2023-03-01T14:08:49;5.70;99.90
17948;DHT22;9099;47.958;11.366;2023-03-01T14:14:25;5.80;99.90
17948;DHT22;9099;47.958;11.366;2023-03-01T14:17:02;5.90;99.90
17948;DHT22;9099;47.958;11.366;2023-03-01T14:19:31;6.00;99.90
17948;DHT22;9099;47.958;11.366;2023-03-01T14:21:59;6.40;99.90
17948;DHT22;9099;47.958;11.366;2023-03-01T14:24:29;7.20;99.90
17948;DHT22;9099;47.958;11.366;2023-03-01T14:26:58;7.20;99.90
17948;DHT22;9099;47.958;11.366;2023-03-01T14:29:33;7.30;99.90
17948;DHT22;9099;47.958;11.366;2023-03-01T14:32:10;7.40;99.90
17948;DHT22;9099;47.958;11.366;2023-03-01T14:34:43;7.40;99.90
17948;DHT22;9099;47.958;11.366;2023-03-01T14:37:11;7.40;99.90
17948;DHT22;9099;47.958;11.366;2023-03-01T14:39:38;7.20;99.90
17948;DHT22;9099;47.958;11.366;2023-03-01T14:42:05;7.30;99.90
17948;DHT22;9099;47.958;11.366;2023-03-01T14:44:32;7.10;99.90
17948;DHT22;9099;47.958;11.366;2023-03-01T14:47:03;6.80;99.90
17948;DHT22;9099;47.958;11.366;2023-03-01T14:49:32;6.80;99.90
17948;DHT22;9099;47.958;11.366;2023-03-01T14:52:01;6.70;99.90
17948;DHT22;9099;47.958;11.366;2023-03-01T14:54:39;6.50;99.90
17948;DHT22;9099;47.958;11.366;2023-03-01T14:57:14;6.50;99.90
17948;DHT22;9099;47.958;11.366;2023-03-01T14:59:42;6.70;99.90
17948;DHT22;9099;47.958;11.366;2023-03-01T15:02:14;6.70;99.90
17948;DHT22;9099;47.958;11.366;2023-03-01T15:04:45;6.90;99.90
17948;DHT22;9099;47.958;11.366;2023-03-01T15:07:14;7.30;99.90
17948;DHT22;9099;47.958;11.366;2023-03-01T15:09:41;7.60;99.90
17948;DHT22;9099;47.958;11.366;2023-03-01T15:12:37;7.30;99.90
17948;DHT22;9099;47.958;11.366;2023-03-01T15:15:32;7.20;99.90
17948;DHT22;9099;47.958;11.366;2023-03-01T15:18:01;7.20;99.90
17948;DHT22;9099;47.958;11.366;2023-03-01T15:20:31;7.00;99.90
17948;DHT22;9099;47.958;11.366;2023-03-01T15:23:02;6.70;99.90
17948;DHT22;9099;47.958;11.366;2023-03-01T15:25:31;6.30;99.90
17948;DHT22;9099;47.958;11.366;2023-03-01T15:28:00;6.10;99.90
17948;DHT22;9099;47.958;11.366;2023-03-01T15:30:30;5.90;99.90
17948;DHT22;9099;47.958;11.366;2023-03-01T15:33:20;5.70;99.90
17948;DHT22;9099;47.958;11.366;2023-03-01T15:35:49;5.80;99.90
17948;DHT22;9099;47.958;11.366;2023-03-01T15:38:35;6.20;99.90
17948;DHT22;9099;47.958;11.366;2023-03-01T15:41:05;6.50;99.90
17948;DHT22;9099;47.958;11.366;2023-03-01T15:43:43;6.50;99.90
17948;DHT22;9099;47.958;11.366;2023-03-01T15:46:17;6.50;99.90
17948;DHT22;9099;47.958;11.366;2023-03-01T15:48:46;6.40;99.90
17948;DHT22;9099;47.958;11.366;2023-03-01T15:51:16;6.30;99.90
17948;DHT22;9099;47.958;11.366;2023-03-01T15:53:46;6.10;99.90
17948;DHT22;9099;47.958;11.366;2023-03-01T15:56:15;6.10;99.90
17948;DHT22;9099;47.958;11.366;2023-03-01T15:58:42;6.00;99.90
17948;DHT22;9099;47.958;11.366;2023-03-01T16:01:11;6.00;99.90
17948;DHT22;9099;47.958;11.366;2023-03-01T16:03:38;5.80;99.90
17948;DHT22;9099;47.958;11.366;2023-03-01T16:06:06;5.50;99.90
17948;DHT22;9099;47.958;11.366;2023-03-01T16:08:34;5.20;99.90
17948;DHT22;9099;47.958;11.366;2023-03-01T16:11:02;5.00;99.90
17948;DHT22;9099;47.958;11.366;2023-03-01T16:13:31;4.90;99.90
17948;DHT22;9099;47.958;11.366;2023-03-01T16:15:58;4.90;99.90
17948;DHT22;9099;47.958;11.366;2023-03-01T16:18:25;4.80;99.90